Time;durP1;ratioP1;P1;durP2;ratioP2;P2;SDS_P1;SDS_P2;PMS_P1;PMS_P2;Temp;Humidity;BMP_temperature;BMP_pressure;BME280_temperature;BME280_humidity;BME280_pressure;Samples;Min_cycle;Max_cycle;Signal;HPM_P1;HPM_P2
2022/04/30 00:00:06;;;;;;;23.98;12.85;;;;;;;12.49;45.85;101058.28;4872319;28;101928;-81
2022/04/30 00:02:40;;;;;;;23.02;13.70;;;;;;;12.56;46.29;101082.66;4858859;28;97835;-81
2022/04/30 00:05:06;;;;;;;34.63;13.65;;;;;;;12.57;46.18;101089.69;4874453;28;97924;-82
2022/04/30 00:07:31;;;;;;;24.70;13.23;;;;;;;12.69;46.22;101091.94;4875898;28;96832;-82
2022/04/30 00:09:57;;;;;;;22.92;13.65;;;;;;;12.64;46.12;101083.31;4892007;28;97558;-81
2022/04/30 00:12:23;;;;;;;27.98;13.98;;;;;;;12.68;46.07;101091.06;4875228;28;100891;-81
2022/04/30 00:14:49;;;;;;;23.67;14.43;;;;;;;12.72;46.48;101088.34;4849911;28;97958;-81
2022/04/30 00:17:15;;;;;;;23.98;14.57;;;;;;;12.67;46.27;101091.09;4851639;28;97448;-81
2022/04/30 00:19:41;;;;;;;25.80;14.80;;;;;;;12.54;46.64;101097.66;4874422;28;98182;-81
2022/04/30 00:22:07;;;;;;;25.60;15.02;;;;;;;12.45;46.15;101098.81;4859591;28;100992;-82
2022/04/30 00:24:33;;;;;;;22.38;14.20;;;;;;;12.41;46.90;101089.25;4858880;28;97278;-82
2022/04/30 00:27:01;;;;;;;22.27;14.18;;;;;;;12.36;47.28;101102.56;4850143;28;97711;-82
2022/04/30 00:29:29;;;;;;;27.70;14.60;;;;;;;12.20;47.52;101088.09;4873711;28;102210;-81
2022/04/30 00:31:55;;;;;;;28.80;14.15;;;;;;;12.28;47.20;101090.53;4874365;28;101455;-82
2022/04/30 00:34:21;;;;;;;26.65;14.30;;;;;;;12.46;46.98;101105.78;4874287;28;97589;-81
2022/04/30 00:36:47;;;;;;;29.13;15.18;;;;;;;12.49;46.92;101100.44;4875341;28;97186;-80
2022/04/30 00:39:13;;;;;;;27.40;14.85;;;;;;;12.37;46.94;101095.53;4875312;28;98319;-81
2022/04/30 00:41:44;;;;;;;28.33;14.77;;;;;;;12.24;47.04;101102.91;4859483;28;100971;-81
2022/04/30 00:44:10;;;;;;;28.45;14.10;;;;;;;12.33;47.00;101102.63;4870064;28;97921;-81
2022/04/30 00:46:36;;;;;;;24.58;14.13;;;;;;;12.39;46.63;101096.31;4863707;28;97177;-81
2022/04/30 00:49:02;;;;;;;26.20;14.60;;;;;;;12.37;46.40;101083.22;4854785;28;97582;-81
2022/04/30 00:51:28;;;;;;;25.55;15.25;;;;;;;12.36;46.65;101072.72;4872878;28;97431;-82
2022/04/30 00:53:55;;;;;;;25.00;14.25;;;;;;;12.31;46.95;101093.06;4862729;28;97022;-81
2022/04/30 00:56:36;;;;;;;29.42;14.93;;;;;;;12.08;47.64;101093.72;4856164;28;97540;-81
2022/04/30 00:59:03;;;;;;;26.65;14.43;;;;;;;12.08;47.14;101089.31;4846820;28;101086;-81
2022/04/30 01:01:33;;;;;;;30.17;15.55;;;;;;;12.14;47.53;101077.75;4850090;28;101478;-81
2022/04/30 01:04:19;;;;;;;29.27;14.80;;;;;;;12.14;47.32;101089.16;4871844;28;96843;-81
2022/04/30 01:06:51;;;;;;;29.55;15.88;;;;;;;12.17;47.75;101096.94;4874434;28;97425;-81
2022/04/30 01:09:28;;;;;;;;;;;;;;;12.03;47.85;101085.94;4874311;28;101583;-81
2022/04/30 01:12:04;;;;;;;27.50;14.93;;;;;;;11.93;47.83;101056.41;4862814;28;98519;-82
2022/04/30 01:14:31;;;;;;;29.50;15.15;;;;;;;11.94;47.49;101073.91;4874132;28;97431;-81
2022/04/30 01:17:05;;;;;;;28.35;16.35;;;;;;;11.90;47.54;101063.53;4865352;28;97587;-81
2022/04/30 01:19:37;;;;;;;27.08;15.35;;;;;;;11.95;47.99;101086.16;4873548;28;97908;-81
2022/04/30 01:22:30;;;;;;;29.52;15.20;;;;;;;11.91;48.29;101084.53;4863664;28;101261;-81
2022/04/30 01:24:57;;;;;;;28.88;17.25;;;;;;;11.80;48.59;101078.66;4828432;28;97202;-81
2022/04/30 01:27:28;;;;;;;29.55;15.43;;;;;;;11.92;48.37;101080.13;4877733;28;96990;-81
2022/04/30 01:29:55;;;;;;;26.05;14.95;;;;;;;11.90;48.71;101077.53;4877938;28;97617;-81
2022/04/30 01:38:06;;;;;;;32.00;16.67;;;;;;;11.89;48.57;101080.19;4879219;28;97296;-82
2022/04/30 01:40:33;;;;;;;28.30;15.75;;;;;;;11.75;48.61;101073.53;4862188;28;101589;-81
2022/04/30 01:43:01;;;;;;;27.90;16.67;;;;;;;11.67;48.88;101074.63;4876701;28;101505;-81
2022/04/30 01:45:28;;;;;;;23.70;14.52;;;;;;;11.69;48.95;101060.56;4876636;28;97882;-82
2022/04/30 01:47:54;;;;;;;28.33;15.98;;;;;;;11.76;49.15;101075.25;4861384;28;97342;-81
2022/04/30 01:50:21;;;;;;;34.05;17.35;;;;;;;11.83;48.70;101083.81;4869456;28;101057;-81
2022/04/30 01:52:47;;;;;;;28.30;15.90;;;;;;;11.68;49.44;101093.00;4887695;28;100304;-81
2022/04/30 01:55:13;;;;;;;27.60;15.55;;;;;;;11.73;49.30;101077.97;4860318;28;97486;-81
2022/04/30 01:57:39;;;;;;;28.60;16.20;;;;;;;11.67;49.28;101078.13;4858418;28;97021;-81
2022/04/30 02:00:08;;;;;;;29.00;16.27;;;;;;;11.68;49.57;101077.22;4842085;28;101542;-81
2022/04/30 02:02:42;;;;;;;30.60;16.35;;;;;;;11.63;49.53;101080.88;4876693;28;97736;-81
2022/04/30 02:05:09;;;;;;;28.42;16.75;;;;;;;11.60;49.72;101076.53;4856168;28;97099;-81
2022/04/30 02:07:40;;;;;;;32.33;16.80;;;;;;;11.50;50.25;101064.56;4842887;28;96965;-81
2022/04/30 02:10:06;;;;;;;30.55;16.83;;;;;;;11.46;50.59;101069.03;4857056;28;101349;-81
2022/04/30 02:12:32;;;;;;;33.45;17.65;;;;;;;11.48;49.80;101059.31;4842839;28;101163;-82
2022/04/30 02:14:59;;;;;;;26.23;16.08;;;;;;;11.49;50.50;101076.84;4873342;28;97267;-81
2022/04/30 02:17:28;;;;;;;27.80;16.65;;;;;;;11.40;50.69;101074.44;4859540;28;97961;-82
2022/04/30 02:22:44;;;;;;;33.00;16.85;;;;;;;11.27;50.80;101057.25;4877517;28;98160;-82
2022/04/30 02:25:12;;;;;;;27.75;16.65;;;;;;;11.28;51.00;101059.84;4841522;28;96943;-82
2022/04/30 02:27:39;;;;;;;27.52;16.52;;;;;;;11.33;50.59;101060.59;4868764;28;97557;-82
2022/04/30 02:30:08;;;;;;;28.17;15.63;;;;;;;11.37;50.69;101066.63;4867308;28;98252;-82
2022/04/30 02:32:48;;;;;;;28.50;16.77;;;;;;;11.19;50.61;101035.56;4892960;28;97412;-82
2022/04/30 02:35:19;;;;;;;28.42;16.05;;;;;;;11.24;50.91;101054.72;4867450;28;97790;-82
2022/04/30 02:37:48;;;;;;;29.67;16.63;;;;;;;11.22;51.07;101051.25;4874867;28;97608;-81
2022/04/30 02:40:14;;;;;;;29.63;17.13;;;;;;;11.23;50.98;101059.09;4876440;28;101476;-82
2022/04/30 02:42:41;;;;;;;33.08;18.15;;;;;;;11.24;51.11;101054.72;4876877;28;101777;-82
2022/04/30 02:45:09;;;;;;;40.03;19.13;;;;;;;11.07;50.68;101027.06;4875196;28;97275;-82
2022/04/30 02:47:38;;;;;;;34.92;19.08;;;;;;;11.08;51.75;101059.47;4861052;28;96956;-81
2022/04/30 02:50:06;;;;;;;34.00;18.05;;;;;;;11.15;51.35;101052.31;4891700;28;97587;-82
2022/04/30 02:52:31;;;;;;;36.83;19.02;;;;;;;11.27;51.40;101052.00;4852903;28;101224;-82
2022/04/30 02:54:57;;;;;;;40.17;19.35;;;;;;;11.23;50.92;101042.47;4874285;28;96910;-82
2022/04/30 02:57:22;;;;;;;34.92;19.30;;;;;;;11.28;51.00;101044.06;4860663;28;97069;-81
2022/04/30 02:59:54;;;;;;;35.95;18.83;;;;;;;11.27;51.04;101033.59;4875886;28;96885;-81
2022/04/30 03:02:39;;;;;;;29.88;17.38;;;;;;;11.12;51.60;101032.22;4879593;28;98943;-81
2022/04/30 03:05:06;;;;;;;34.35;18.50;;;;;;;11.09;51.33;101033.16;4875274;28;97220;-81
2022/04/30 03:07:32;;;;;;;36.60;18.50;;;;;;;11.14;51.33;101045.31;4892377;28;97169;-81
2022/04/30 03:09:57;;;;;;;33.47;19.30;;;;;;;11.16;51.30;101033.88;4850374;28;101379;-81
2022/04/30 03:12:23;;;;;;;33.58;18.65;;;;;;;11.04;51.73;101031.56;4875541;28;97992;-81
2022/04/30 03:14:48;;;;;;;33.47;18.33;;;;;;;11.14;51.57;101030.44;4891257;28;97114;-81
2022/04/30 03:22:43;;;;;;;32.00;18.20;;;;;;;10.97;51.62;101022.09;4862757;28;101851;-81
2022/04/30 03:25:08;;;;;;;34.70;19.38;;;;;;;10.96;51.83;101009.84;4852705;28;100015;-81
2022/04/30 03:27:34;;;;;;;33.63;17.77;;;;;;;10.90;52.36;101031.88;4865384;28;97667;-81
2022/04/30 03:29:59;;;;;;;35.92;18.27;;;;;;;10.77;53.15;101019.97;4892015;28;98560;-82
2022/04/30 03:32:25;;;;;;;27.05;18.02;;;;;;;10.68;52.72;100996.56;4877906;28;96853;-81
2022/04/30 03:34:51;;;;;;;32.58;18.40;;;;;;;10.93;52.27;101023.06;4891342;28;97175;-80
2022/04/30 03:37:18;;;;;;;30.60;18.95;;;;;;;10.85;51.70;101028.53;4855833;28;96934;-81
2022/04/30 03:39:43;;;;;;;34.45;19.90;;;;;;;10.96;52.25;101033.50;4872852;28;98738;-81
2022/04/30 03:42:09;;;;;;;31.38;18.08;;;;;;;11.04;51.57;101018.41;4875399;28;97911;-82
2022/04/30 03:44:35;;;;;;;35.40;18.75;;;;;;;11.02;51.68;101015.81;4874646;28;97154;-81
2022/04/30 03:47:00;;;;;;;33.80;19.73;;;;;;;10.97;51.91;100995.84;4875431;28;96914;-81
2022/04/30 03:49:26;;;;;;;35.40;18.98;;;;;;;11.19;51.27;101015.41;4875090;28;98563;-81
2022/04/30 03:51:54;;;;;;;34.65;19.58;;;;;;;10.95;52.08;101013.41;4859848;28;101226;-80
2022/04/30 03:54:19;;;;;;;31.30;19.70;;;;;;;11.10;51.64;101019.13;4867798;28;97448;-81
2022/04/30 03:56:45;;;;;;;36.83;20.35;;;;;;;10.99;51.83;101012.41;4871398;28;100583;-81
2022/04/30 03:59:10;;;;;;;33.25;20.63;;;;;;;11.26;51.08;101016.13;4874007;28;101428;-81
2022/04/30 04:01:37;;;;;;;40.55;21.20;;;;;;;11.19;51.07;100997.00;4859705;28;101405;-81
2022/04/30 04:04:03;;;;;;;39.58;20.02;;;;;;;11.22;51.08;101001.31;4890850;28;97108;-81
2022/04/30 04:06:29;;;;;;;40.63;21.95;;;;;;;10.78;51.60;100971.78;4875866;28;97736;-81
2022/04/30 04:08:55;;;;;;;33.50;20.67;;;;;;;10.97;51.75;101022.09;4858937;28;101528;-80
2022/04/30 04:11:23;;;;;;;40.38;19.83;;;;;;;10.96;51.99;101021.22;4867483;28;101975;-81
2022/04/30 04:19:20;;;;;;;35.22;20.77;;;;;;;11.07;51.59;101026.22;4891061;28;98466;-81
2022/04/30 04:21:45;;;;;;;34.80;21.13;;;;;;;10.99;51.73;101025.53;4859980;28;100905;-81
2022/04/30 04:26:55;;;;;;;35.33;20.90;;;;;;;10.93;52.31;101034.44;4867910;28;96861;-80
2022/04/30 04:29:21;;;;;;;39.25;20.60;;;;;;;10.99;51.91;101022.91;4874390;28;98176;-81
2022/04/30 04:31:46;;;;;;;35.63;19.90;;;;;;;11.00;51.84;101029.91;4859738;28;101754;-81
2022/04/30 04:34:12;;;;;;;37.70;21.02;;;;;;;10.95;52.38;101024.75;4858003;28;96918;-81
2022/04/30 04:36:37;;;;;;;39.10;20.08;;;;;;;10.91;52.65;101031.00;4875323;28;96988;-81
2022/04/30 04:39:09;;;;;;;32.80;19.02;;;;;;;10.85;53.07;101025.91;4857932;28;100965;-81
2022/04/30 04:41:35;;;;;;;39.50;22.65;;;;;;;10.92;52.29;101006.44;4855440;28;101395;-80
2022/04/30 04:44:02;;;;;;;41.72;21.55;;;;;;;11.29;51.65;101019.53;4872030;28;97167;-81
2022/04/30 04:46:28;;;;;;;37.38;21.30;;;;;;;11.24;51.80;101025.81;4862136;28;97341;-81
2022/04/30 04:48:54;;;;;;;37.15;20.63;;;;;;;11.05;52.44;101021.03;4877256;28;101527;-80
2022/04/30 04:51:21;;;;;;;32.22;20.15;;;;;;;11.20;51.45;101019.78;4862362;28;101736;-80
2022/04/30 04:53:47;;;;;;;34.03;20.80;;;;;;;11.13;51.32;101027.84;4877339;28;96864;-80
2022/04/30 04:56:12;;;;;;;34.65;19.92;;;;;;;11.17;50.62;101000.56;4870395;28;97789;-81
2022/04/30 04:58:40;;;;;;;35.78;20.25;;;;;;;11.09;51.00;101041.06;4876728;28;97977;-80
2022/04/30 05:01:06;;;;;;;34.22;20.33;;;;;;;11.15;51.05;101023.41;4877223;28;97906;-81
2022/04/30 05:03:31;;;;;;;34.10;20.63;;;;;;;11.09;51.07;101020.03;4876864;28;96715;-81
2022/04/30 05:05:57;;;;;;;37.50;20.58;;;;;;;11.02;50.78;101017.59;4877289;28;97779;-80
2022/04/30 05:08:22;;;;;;;36.00;22.00;;;;;;;11.07;50.83;101013.94;4877265;28;101466;-81
2022/04/30 05:10:48;;;;;;;33.47;20.83;;;;;;;11.09;50.55;101019.16;4894504;28;97402;-80
2022/04/30 05:13:14;;;;;;;37.05;19.80;;;;;;;11.04;51.15;101027.16;4851247;28;97969;-80
2022/04/30 05:15:40;;;;;;;34.70;20.42;;;;;;;11.11;50.78;101022.59;4869144;28;97145;-81
2022/04/30 05:18:07;;;;;;;33.38;20.20;;;;;;;11.06;50.97;101027.13;4876407;28;101030;-81
2022/04/30 05:20:33;;;;;;;34.97;20.73;;;;;;;11.10;50.94;101024.38;4874979;28;101086;-81
2022/04/30 05:22:58;;;;;;;34.13;19.30;;;;;;;11.06;51.19;101029.75;4875583;28;97289;-80
2022/04/30 05:25:24;;;;;;;33.35;19.45;;;;;;;10.99;51.84;101038.69;4862083;28;96970;-81
2022/04/30 05:27:50;;;;;;;34.45;19.75;;;;;;;10.88;52.19;101029.31;4860965;28;101233;-81
2022/04/30 05:30:15;;;;;;;37.55;20.20;;;;;;;10.74;52.82;101009.53;4901945;28;100212;-80
2022/04/30 05:32:41;;;;;;;29.17;18.45;;;;;;;10.91;53.21;101030.09;4868660;28;98205;-80
2022/04/30 05:35:07;;;;;;;38.65;21.63;;;;;;;11.24;52.43;101038.94;4875329;28;96989;-81
2022/04/30 05:37:32;;;;;;;35.70;19.73;;;;;;;11.23;51.81;101030.19;4893358;28;97230;-81
2022/04/30 05:39:58;;;;;;;41.15;19.95;;;;;;;11.21;52.12;101034.63;4892981;28;97901;-81
2022/04/30 05:42:24;;;;;;;35.78;21.30;;;;;;;11.29;51.79;101047.59;4873808;28;97019;-81
2022/04/30 05:44:50;;;;;;;33.17;20.33;;;;;;;11.24;51.94;101045.06;4861062;28;97460;-81
2022/04/30 05:47:17;;;;;;;35.25;19.83;;;;;;;11.27;52.09;101030.97;4855169;28;101409;-81
2022/04/30 05:49:42;;;;;;;33.60;19.27;;;;;;;11.39;51.73;101042.94;4854300;28;101285;-81
2022/04/30 05:52:07;;;;;;;36.33;20.23;;;;;;;11.41;51.46;101038.50;4876358;28;97539;-80
2022/04/30 05:54:33;;;;;;;30.92;18.38;;;;;;;11.27;51.63;101023.09;4860963;28;97333;-81
2022/04/30 05:56:59;;;;;;;34.25;19.85;;;;;;;11.28;51.90;101025.66;4876230;28;102015;-81
2022/04/30 05:59:24;;;;;;;34.65;19.10;;;;;;;11.25;52.06;101038.03;4861440;28;101265;-80
2022/04/30 06:01:50;;;;;;;36.45;19.67;;;;;;;11.35;51.72;101039.53;4870668;28;98132;-80
2022/04/30 06:04:15;;;;;;;34.28;19.58;;;;;;;11.27;52.00;101034.47;4888146;28;97939;-81
2022/04/30 06:06:41;;;;;;;33.22;20.77;;;;;;;11.42;51.96;101040.22;4890320;28;101675;-82
2022/04/30 06:09:07;;;;;;;33.22;20.08;;;;;;;11.34;52.49;101037.78;4872732;28;98134;-81
2022/04/30 06:11:33;;;;;;;35.30;20.02;;;;;;;11.40;52.24;101021.84;4861030;28;97210;-81
2022/04/30 06:13:58;;;;;;;31.48;19.48;;;;;;;11.49;53.16;101042.66;4861712;28;97501;-80
2022/04/30 06:16:24;;;;;;;29.40;18.90;;;;;;;11.60;52.83;101039.72;4862164;28;101451;-81
2022/04/30 06:18:49;;;;;;;39.22;20.60;;;;;;;11.73;52.56;101038.50;4870814;28;98431;-81
2022/04/30 06:21:15;;;;;;;35.90;19.70;;;;;;;11.52;52.59;101029.44;4874268;28;97783;-81
2022/04/30 06:23:40;;;;;;;36.45;20.10;;;;;;;11.62;52.63;101037.94;4869537;28;97398;-80
2022/04/30 06:26:06;;;;;;;37.53;20.95;;;;;;;11.86;52.11;101046.94;4882038;28;98083;-81
2022/04/30 06:28:31;;;;;;;37.00;19.60;;;;;;;11.97;51.37;101051.91;4853382;28;101199;-82
2022/04/30 06:30:59;;;;;;;35.35;20.27;;;;;;;12.22;50.92;101052.94;4850412;28;96839;-79
2022/04/30 06:33:25;;;;;;;35.53;19.50;;;;;;;12.14;50.63;101047.03;4885858;28;97415;-82
2022/04/30 06:35:50;;;;;;;33.30;19.58;;;;;;;12.10;50.75;101041.88;4860560;28;98011;-81
2022/04/30 06:38:16;;;;;;;30.92;17.65;;;;;;;11.87;50.66;101005.72;4860525;28;100262;-80
2022/04/30 06:40:42;;;;;;;35.15;20.13;;;;;;;12.18;50.83;101024.13;4866955;28;96897;-80
2022/04/30 06:43:08;;;;;;;35.53;20.23;;;;;;;12.43;51.03;101038.28;4890119;28;97376;-81
2022/04/30 06:45:33;;;;;;;38.97;20.73;;;;;;;12.43;51.51;101046.19;4857466;28;97462;-82
2022/04/30 06:47:59;;;;;;;30.23;19.20;;;;;;;12.47;51.78;101046.94;4840661;28;100672;-80
2022/04/30 06:50:24;;;;;;;34.42;20.77;;;;;;;12.63;51.30;101036.81;4842715;28;97060;-82
2022/04/30 06:58:18;;;;;;;35.80;20.15;;;;;;;12.96;50.55;101045.41;4864231;28;97634;-80
2022/04/30 07:03:27;;;;;;;35.47;19.45;;;;;;;13.11;49.34;101033.50;4870739;28;96859;-80
2022/04/30 07:06:04;;;;;;;30.23;18.80;;;;;;;13.34;48.54;101052.06;4840241;28;101457;-81
2022/04/30 07:08:33;;;;;;;36.22;20.23;;;;;;;13.46;48.73;101036.75;4862640;28;98456;-80
2022/04/30 07:11:03;;;;;;;32.42;19.40;;;;;;;13.52;48.91;101040.03;4870113;28;98271;-79
2022/04/30 07:13:32;;;;;;;39.25;21.42;;;;;;;13.55;48.52;101042.53;4854219;28;97009;-81
2022/04/30 07:15:58;;;;;;;36.35;21.23;;;;;;;13.75;48.16;101027.81;4855151;28;101519;-81
2022/04/30 07:18:24;;;;;;;38.00;20.58;;;;;;;13.97;48.65;101041.09;4864437;28;97814;-80
2022/04/30 07:20:51;;;;;;;37.63;22.55;;;;;;;14.29;47.58;101042.53;4851336;28;97388;-81
2022/04/30 07:23:17;;;;;;;31.33;20.60;;;;;;;14.29;46.37;101012.63;4826589;28;97435;-80
2022/04/30 07:25:42;;;;;;;32.83;20.50;;;;;;;14.58;46.95;101030.88;4854276;28;101340;-81
2022/04/30 07:28:08;;;;;;;32.17;20.50;;;;;;;14.95;46.17;101032.00;4839063;28;97389;-80
2022/04/30 07:30:34;;;;;;;38.15;20.73;;;;;;;15.21;45.12;101041.50;4863602;28;97128;-80
2022/04/30 07:32:59;;;;;;;34.45;19.85;;;;;;;15.35;44.77;101043.59;4849441;29;97704;-81
2022/04/30 07:35:25;;;;;;;34.22;19.52;;;;;;;15.53;44.82;101031.34;4853428;28;98685;-81
2022/04/30 07:37:50;;;;;;;29.45;18.10;;;;;;;15.95;44.22;101046.31;4845954;28;101070;-81
2022/04/30 07:40:16;;;;;;;26.60;17.92;;;;;;;16.27;42.69;101055.44;4852946;28;97381;-82
2022/04/30 07:42:41;;;;;;;25.05;17.67;;;;;;;16.23;42.42;101045.91;4870713;28;97340;-80
2022/04/30 07:45:07;;;;;;;27.90;17.42;;;;;;;16.63;41.73;101042.25;4868780;28;97655;-80
2022/04/30 07:47:33;;;;;;;27.95;17.98;;;;;;;16.80;40.84;101043.25;4885992;28;101450;-81
2022/04/30 07:49:58;;;;;;;30.77;16.33;;;;;;;16.99;41.03;101041.44;4891893;28;97796;-81
2022/04/30 07:52:25;;;;;;;26.63;14.85;;;;;;;16.67;39.70;101043.81;4876775;28;97159;-81
2022/04/30 07:54:51;;;;;;;24.77;15.00;;;;;;;16.77;39.99;101033.66;4893390;28;98047;-81
2022/04/30 07:57:16;;;;;;;27.58;14.18;;;;;;;17.04;39.76;101044.69;4877371;28;97881;-82
2022/04/30 07:59:44;;;;;;;24.27;14.00;;;;;;;17.42;39.09;101040.16;4870393;28;98282;-81
2022/04/30 08:02:10;;;;;;;23.90;14.85;;;;;;;17.77;38.49;101020.63;4875216;28;96947;-81
2022/04/30 08:04:35;;;;;;;27.60;14.55;;;;;;;18.07;38.42;101040.28;4859933;28;101724;-80
2022/04/30 08:07:01;;;;;;;23.70;13.60;;;;;;;18.46;37.39;101039.03;4874165;28;97349;-79
2022/04/30 08:09:26;;;;;;;21.63;12.63;;;;;;;18.50;37.69;101015.78;4867141;28;96761;-81
2022/04/30 08:11:52;;;;;;;20.02;12.52;;;;;;;18.80;37.21;101017.72;4875844;28;97169;-81
2022/04/30 08:14:17;;;;;;;21.38;13.60;;;;;;;18.95;36.34;101046.94;4874668;28;98037;-80
2022/04/30 08:16:43;;;;;;;21.17;12.43;;;;;;;19.00;35.53;101020.09;4859678;28;101733;-80
2022/04/30 08:19:09;;;;;;;20.90;13.32;;;;;;;19.27;35.14;101033.56;4866242;28;97693;-81
2022/04/30 08:21:34;;;;;;;18.40;11.82;;;;;;;19.25;34.85;101038.13;4883562;28;97382;-81
2022/04/30 08:24:00;;;;;;;20.30;12.57;;;;;;;19.25;34.58;101027.47;4840251;28;101619;-80
2022/04/30 08:26:25;;;;;;;22.50;14.05;;;;;;;19.48;34.16;101033.22;4855835;28;101357;-80
2022/04/30 08:28:51;;;;;;;21.08;12.77;;;;;;;19.62;34.88;101039.44;4863142;28;97214;-80
2022/04/30 08:31:18;;;;;;;19.08;12.02;;;;;;;19.96;34.47;101041.91;4857548;28;97075;-81
2022/04/30 08:33:43;;;;;;;17.52;10.80;;;;;;;20.31;33.68;101035.19;4856742;28;100442;-79
2022/04/30 08:36:09;;;;;;;18.98;10.88;;;;;;;20.58;32.95;101032.59;4861627;28;98017;-81
2022/04/30 08:38:35;;;;;;;14.80;9.73;;;;;;;20.55;31.96;101027.47;4876926;28;97184;-78
2022/04/30 08:41:00;;;;;;;16.85;10.82;;;;;;;20.79;31.46;101024.16;4865998;28;97345;-79
2022/04/30 08:43:26;;;;;;;16.38;10.15;;;;;;;20.46;31.45;101009.38;4846988;28;101542;-82
2022/04/30 08:45:52;;;;;;;14.45;9.57;;;;;;;20.55;31.83;101031.94;4853997;28;102045;-86
2022/04/30 08:48:17;;;;;;;14.48;9.13;;;;;;;20.64;30.78;101020.69;4852372;28;100994;-82
2022/04/30 08:50:45;;;;;;;12.90;8.48;;;;;;;21.04;29.76;101015.38;4867765;28;97251;-81
2022/04/30 08:53:11;;;;;;;12.05;8.48;;;;;;;21.30;29.17;101015.44;4876018;28;97469;-81
2022/04/30 08:55:37;;;;;;;12.20;7.90;;;;;;;21.88;29.38;100996.25;4874177;28;101679;-79
2022/04/30 08:58:03;;;;;;;10.95;8.07;;;;;;;22.45;27.84;101012.75;4873696;28;97877;-78
2022/04/30 09:00:29;;;;;;;10.32;7.60;;;;;;;22.47;26.38;101006.31;4875206;28;97406;-79
2022/04/30 09:02:59;;;;;;;13.20;7.20;;;;;;;22.00;26.07;101012.41;4868700;28;101438;-78
2022/04/30 09:05:36;;;;;;;13.02;6.95;;;;;;;21.92;26.43;100991.53;4869107;28;101774;-79
2022/04/30 09:08:03;;;;;;;9.77;7.28;;;;;;;21.86;26.57;101010.69;4882184;28;98007;-78
2022/04/30 09:10:34;;;;;;;15.40;8.05;;;;;;;22.07;27.09;101008.31;4869975;28;97457;-79
2022/04/30 09:13:18;;;;;;;14.10;6.93;;;;;;;21.90;26.38;101005.03;4868765;28;100547;-78
2022/04/30 09:15:46;;;;;;;10.07;6.70;;;;;;;21.94;26.81;101000.31;4886290;28;101585;-78
2022/04/30 09:18:14;;;;;;;10.93;6.15;;;;;;;22.32;26.48;100992.25;4859780;28;96912;-83
2022/04/30 09:20:53;;;;;;;11.77;6.85;;;;;;;22.68;26.02;100995.00;4871578;28;96958;-83
2022/04/30 09:23:30;;;;;;;9.13;5.68;;;;;;;23.00;25.40;100997.97;4883464;28;101694;-84
2022/04/30 09:25:57;;;;;;;10.40;6.30;;;;;;;22.59;25.53;101008.09;4859835;28;100939;-82
2022/04/30 09:28:27;;;;;;;10.55;6.63;;;;;;;22.85;25.67;100996.41;4868085;28;97560;-78
2022/04/30 09:31:22;;;;;;;10.17;6.53;;;;;;;22.94;25.86;100990.38;4855344;28;98217;-86
2022/04/30 09:33:51;;;;;;;14.88;7.20;;;;;;;23.24;25.78;100989.88;4863006;28;101341;-84
2022/04/30 09:39:18;;;;;;;9.25;6.18;;;;;;;22.63;24.79;100991.81;4885459;28;98167;-85
2022/04/30 09:41:44;;;;;;;10.65;5.75;;;;;;;22.22;25.98;100985.00;4863762;28;97075;-85
2022/04/30 09:44:12;;;;;;;13.02;5.88;;;;;;;22.00;26.06;100989.19;4866885;28;102199;-82
2022/04/30 09:46:39;;;;;;;9.07;5.65;;;;;;;21.85;26.43;100985.78;4880913;28;101293;-82
2022/04/30 09:54:37;;;;;;;7.80;5.70;;;;;;;21.32;26.69;100973.47;4854532;28;100969;-82
2022/04/30 09:57:09;;;;;;;8.40;5.05;;;;;;;21.10;26.67;100980.28;4858247;28;101958;-85
2022/04/30 09:59:37;;;;;;;8.25;4.63;;;;;;;20.98;27.33;100978.44;4859126;28;97077;-82
2022/04/30 10:02:05;;;;;;;6.72;4.15;;;;;;;20.94;26.89;100968.91;4874165;28;97516;-81
2022/04/30 10:04:32;;;;;;;7.95;4.30;;;;;;;20.25;27.24;100976.94;4875982;28;98340;-80
2022/04/30 10:07:00;;;;;;;8.35;4.65;;;;;;;19.96;27.80;100988.59;4858969;28;97458;-80
2022/04/30 10:09:50;;;;;;;5.80;3.05;;;;;;;19.63;27.40;100960.41;4858775;28;96797;-80
2022/04/30 10:12:32;;;;;;;9.95;6.03;;;;;;;19.87;27.46;100971.41;4852288;28;99896;-82
2022/04/30 10:15:17;;;;;;;7.72;4.68;;;;;;;20.18;27.68;100980.09;4851642;28;99489;-84
2022/04/30 10:17:46;;;;;;;9.00;5.07;;;;;;;20.05;27.59;100972.88;4890550;28;101633;-82
2022/04/30 10:20:19;;;;;;;9.52;4.32;;;;;;;19.85;27.74;100931.50;4858930;28;97204;-82
2022/04/30 10:22:55;;;;;;;7.20;4.00;;;;;;;20.07;27.78;100971.00;4844322;28;96936;-84
2022/04/30 10:25:34;;;;;;;13.40;5.03;;;;;;;19.71;28.24;100976.81;4882715;28;98411;-83
2022/04/30 10:28:15;;;;;;;8.68;4.45;;;;;;;19.52;28.33;100968.19;4861260;28;101893;-83
2022/04/30 10:30:42;;;;;;;8.40;4.95;;;;;;;19.42;28.64;100942.13;4860468;28;97169;-82
2022/04/30 10:33:09;;;;;;;8.32;4.10;;;;;;;19.72;28.68;100973.16;4855030;28;96998;-84
2022/04/30 10:35:45;;;;;;;8.32;4.90;;;;;;;19.71;28.82;100973.28;4871320;28;98211;-79
2022/04/30 10:38:13;;;;;;;8.25;4.68;;;;;;;19.20;28.89;100953.25;4860464;28;97432;-78
2022/04/30 10:40:40;;;;;;;7.78;4.78;;;;;;;19.30;29.23;100966.84;4851681;29;97155;-78
2022/04/30 10:43:18;;;;;;;8.40;5.35;;;;;;;19.22;29.15;100963.78;4839588;29;97531;-83
2022/04/30 10:45:44;;;;;;;7.90;4.90;;;;;;;19.29;29.47;100954.50;4887623;28;101311;-80
2022/04/30 10:48:11;;;;;;;8.40;4.63;;;;;;;19.37;29.55;100954.00;4859666;28;97229;-79
2022/04/30 10:50:36;;;;;;;11.15;5.22;;;;;;;19.25;28.96;100960.94;4860157;28;97467;-78
2022/04/30 10:53:02;;;;;;;10.98;5.53;;;;;;;18.99;30.00;100946.53;4870732;28;97444;-88
2022/04/30 10:55:29;;;;;;;9.55;5.45;;;;;;;18.85;29.86;100946.47;4860923;28;101766;-88
2022/04/30 10:57:55;;;;;;;8.75;5.13;;;;;;;18.84;30.08;100950.94;4866468;28;100304;-89
2022/04/30 11:00:21;;;;;;;8.63;5.15;;;;;;;18.79;29.95;100947.69;4892910;28;97311;-88
2022/04/30 11:02:49;;;;;;;9.40;5.10;;;;;;;18.61;29.75;100935.44;4875116;28;97318;-89
2022/04/30 11:05:22;;;;;;;9.10;4.93;;;;;;;18.33;30.00;100921.94;4857348;28;101771;-88
2022/04/30 11:07:49;;;;;;;6.82;4.72;;;;;;;18.54;30.07;100930.47;4893401;28;98785;-89
2022/04/30 11:10:17;;;;;;;9.73;4.95;;;;;;;18.41;30.31;100902.88;4878413;28;96858;-88
2022/04/30 11:12:44;;;;;;;10.15;4.90;;;;;;;18.15;30.20;100861.88;4890208;28;98033;-88
2022/04/30 11:15:14;;;;;;;12.63;5.28;;;;;;;17.92;30.15;100857.00;4860135;28;101291;-88
2022/04/30 11:17:44;;;;;;;8.85;5.32;;;;;;;17.74;30.42;100867.66;4877899;28;98160;-89
2022/04/30 11:20:10;;;;;;;9.00;4.72;;;;;;;17.88;30.58;100873.09;4861929;28;97173;-88
2022/04/30 11:22:35;;;;;;;9.77;4.25;;;;;;;18.42;30.54;100922.38;4876254;28;97180;-88
2022/04/30 11:25:01;;;;;;;8.05;4.68;;;;;;;18.31;29.74;100875.13;4875735;28;97868;-89
2022/04/30 11:27:29;;;;;;;6.70;3.95;;;;;;;18.12;29.94;100845.25;4880013;28;98306;-87
2022/04/30 11:30:00;;;;;;;9.15;4.95;;;;;;;18.38;29.60;100875.63;4862795;28;97118;-88
2022/04/30 11:32:27;;;;;;;11.52;5.13;;;;;;;18.66;29.80;100922.75;4880286;28;96536;-89
2022/04/30 11:35:01;;;;;;;14.48;5.20;;;;;;;18.61;30.20;100917.69;4881620;28;100179;-90
2022/04/30 11:37:36;;;;;;;7.70;3.67;;;;;;;18.61;29.76;100908.84;4861856;28;100679;-90
2022/04/30 11:40:06;;;;;;;7.60;4.22;;;;;;;18.11;29.63;100844.38;4861366;28;97798;-86
2022/04/30 11:42:32;;;;;;;6.35;3.60;;;;;;;18.65;29.77;100908.59;4888136;28;97956;-87
2022/04/30 11:45:00;;;;;;;6.40;3.97;;;;;;;18.73;29.26;100913.44;4875623;28;98266;-86
2022/04/30 11:47:27;;;;;;;9.07;4.50;;;;;;;18.76;29.26;100907.97;4856830;28;100187;-86
2022/04/30 11:50:04;;;;;;;5.65;3.78;;;;;;;18.79;29.88;100907.78;4876670;28;97208;-86